sensor_id;sensor_type;location;lat;lon;timestamp;pressure;altitude;pressure_sealevel;temperature;humidity
59987;BME280;46181;51.498;5.392;2023-12-20T00:01:28;101541.5;;;11.09;66.53516
59987;BME280;46181;51.498;5.392;2023-12-20T00:05:58;101546;;;11.01;66.40039
59987;BME280;46181;51.498;5.392;2023-12-20T00:10:28;101553.1;;;10.92;66.39844
59987;BME280;46181;51.498;5.392;2023-12-20T00:14:58;101556.7;;;10.86;66.50098
59987;BME280;46181;51.498;5.392;2023-12-20T00:19:28;101560;;;10.8;66.50391
59987;BME280;46181;51.498;5.392;2023-12-20T00:23:58;101563.5;;;10.81;66.74023
59987;BME280;46181;51.498;5.392;2023-12-20T00:28:28;101559;;;10.79;66.72559
59987;BME280;46181;51.498;5.392;2023-12-20T00:32:59;101554;;;10.74;66.5166
59987;BME280;46181;51.498;5.392;2023-12-20T00:37:28;101552.1;;;10.67;66.43848
59987;BME280;46181;51.498;5.392;2023-12-20T00:41:58;101544.7;;;10.57;66.2666
59987;BME280;46181;51.498;5.392;2023-12-20T00:46:28;101541.3;;;10.49;66.17578
59987;BME280;46181;51.498;5.392;2023-12-20T00:50:58;101536;;;10.39;66.19434
59987;BME280;46181;51.498;5.392;2023-12-20T00:55:28;101536.2;;;10.39;66.44141
59987;BME280;46181;51.498;5.392;2023-12-20T00:59:58;101530.9;;;10.39;66.31738
59987;BME280;46181;51.498;5.392;2023-12-20T01:04:28;101537.7;;;10.33;66.16211
59987;BME280;46181;51.498;5.392;2023-12-20T01:08:58;101534.6;;;10.26;66.1416
59987;BME280;46181;51.498;5.392;2023-12-20T01:13:28;101534.3;;;10.24;66.33887
59987;BME280;46181;51.498;5.392;2023-12-20T01:17:58;101542.6;;;10.29;66.55957
59987;BME280;46181;51.498;5.392;2023-12-20T01:22:28;101542.6;;;10.29;66.43555
59987;BME280;46181;51.498;5.392;2023-12-20T01:26:58;101539.7;;;10.34;66.75781
59987;BME280;46181;51.498;5.392;2023-12-20T01:31:28;101554;;;10.44;66.86426
59987;BME280;46181;51.498;5.392;2023-12-20T01:35:58;101556.2;;;10.44;66.66113
59987;BME280;46181;51.498;5.392;2023-12-20T01:40:28;101555;;;10.4;66.47656
59987;BME280;46181;51.498;5.392;2023-12-20T01:44:58;101545;;;10.38;66.52832
59987;BME280;46181;51.498;5.392;2023-12-20T01:49:28;101551;;;10.41;66.56738
59987;BME280;46181;51.498;5.392;2023-12-20T01:53:58;101546.7;;;10.36;66.41406
59987;BME280;46181;51.498;5.392;2023-12-20T01:58:28;101546.4;;;10.32;66.38477
59987;BME280;46181;51.498;5.392;2023-12-20T02:03:00;101543.1;;;10.26;66.20898
59987;BME280;46181;51.498;5.392;2023-12-20T02:07:29;101537.5;;;10.17;66.07031
59987;BME280;46181;51.498;5.392;2023-12-20T02:11:58;101541.1;;;10.12;66.35352
59987;BME280;46181;51.498;5.392;2023-12-20T02:16:28;101548.1;;;10.16;66.51758
59987;BME280;46181;51.498;5.392;2023-12-20T02:20:58;101552.8;;;10.2;66.68164
59987;BME280;46181;51.498;5.392;2023-12-20T02:25:28;101549.7;;;10.24;66.65332
59987;BME280;46181;51.498;5.392;2023-12-20T02:29:59;101539.3;;;10.19;66.33203
59987;BME280;46181;51.498;5.392;2023-12-20T02:34:28;101536.8;;;10.14;66.25684
59987;BME280;46181;51.498;5.392;2023-12-20T02:38:58;101540.5;;;10.08;66.21387
59987;BME280;46181;51.498;5.392;2023-12-20T02:43:28;101544;;;10.04;66.25293
59987;BME280;46181;51.498;5.392;2023-12-20T02:47:58;101549.2;;;10.08;66.56152
59987;BME280;46181;51.498;5.392;2023-12-20T02:52:28;101540.1;;;10.08;66.48242
59987;BME280;46181;51.498;5.392;2023-12-20T02:56:58;101544.2;;;10.16;66.75293
59987;BME280;46181;51.498;5.392;2023-12-20T03:01:29;101540.2;;;10.18;66.56543
59987;BME280;46181;51.498;5.392;2023-12-20T03:05:58;101538.5;;;10.13;66.34473
59987;BME280;46181;51.498;5.392;2023-12-20T03:10:28;101533.4;;;10.06;66.16602
59987;BME280;46181;51.498;5.392;2023-12-20T03:14:58;101529.8;;;9.97;66.15234
59987;BME280;46181;51.498;5.392;2023-12-20T03:19:28;101530;;;9.92;66.17871
59987;BME280;46181;51.498;5.392;2023-12-20T03:23:58;101522.6;;;9.88;66.15039
59987;BME280;46181;51.498;5.392;2023-12-20T03:28:29;101527;;;9.86;66.21484
59987;BME280;46181;51.498;5.392;2023-12-20T03:32:58;101519.8;;;9.88;66.49902
59987;BME280;46181;51.498;5.392;2023-12-20T03:37:28;101515.4;;;10.02;66.87695
59987;BME280;46181;51.498;5.392;2023-12-20T03:41:58;101509.6;;;10.14;66.96387
59987;BME280;46181;51.498;5.392;2023-12-20T03:46:28;101508.6;;;10.23;66.91016
59987;BME280;46181;51.498;5.392;2023-12-20T03:50:58;101504.3;;;10.35;66.92773
59987;BME280;46181;51.498;5.392;2023-12-20T03:55:28;101513.9;;;10.44;66.97559
59987;BME280;46181;51.498;5.392;2023-12-20T03:59:58;101520.3;;;10.55;67.03711
59987;BME280;46181;51.498;5.392;2023-12-20T04:04:28;101518;;;10.65;66.94141
59987;BME280;46181;51.498;5.392;2023-12-20T04:08:58;101517.5;;;10.74;66.91992
59987;BME280;46181;51.498;5.392;2023-12-20T04:13:28;101513.7;;;10.82;66.96777
59987;BME280;46181;51.498;5.392;2023-12-20T04:17:58;101513.4;;;10.88;66.91992
59987;BME280;46181;51.498;5.392;2023-12-20T04:22:28;101519.6;;;10.95;66.94141
59987;BME280;46181;51.498;5.392;2023-12-20T04:26:58;101513.6;;;11;66.87109
59987;BME280;46181;51.498;5.392;2023-12-20T04:31:28;101522.5;;;11.05;66.85547
59987;BME280;46181;51.498;5.392;2023-12-20T04:35:58;101522.5;;;11.09;66.80469
59987;BME280;46181;51.498;5.392;2023-12-20T04:40:28;101519.8;;;11.14;66.88086
59987;BME280;46181;51.498;5.392;2023-12-20T04:44:58;101524;;;11.21;66.91406
59987;BME280;46181;51.498;5.392;2023-12-20T04:49:28;101523.9;;;11.23;66.83887
59987;BME280;46181;51.498;5.392;2023-12-20T04:53:58;101522.9;;;11.26;66.80859
59987;BME280;46181;51.498;5.392;2023-12-20T04:58:28;101529.9;;;11.26;66.64063
59987;BME280;46181;51.498;5.392;2023-12-20T05:02:59;101520.2;;;11.23;66.6582
59987;BME280;46181;51.498;5.392;2023-12-20T05:07:28;101506.5;;;11.22;66.6123
59987;BME280;46181;51.498;5.392;2023-12-20T05:11:58;101511.6;;;11.19;66.6416
59987;BME280;46181;51.498;5.392;2023-12-20T05:16:28;101492;;;11.21;66.72363
59987;BME280;46181;51.498;5.392;2023-12-20T05:20:59;101492.4;;;11.23;66.74805
59987;BME280;46181;51.498;5.392;2023-12-20T05:25:28;101497.2;;;11.26;66.71973
59987;BME280;46181;51.498;5.392;2023-12-20T05:29:58;101497.2;;;11.29;66.74707
59987;BME280;46181;51.498;5.392;2023-12-20T05:34:28;101504.3;;;11.35;66.69922
59987;BME280;46181;51.498;5.392;2023-12-20T05:38:58;101504.7;;;11.33;66.5625
59987;BME280;46181;51.498;5.392;2023-12-20T05:43:28;101501.3;;;11.36;66.61035
59987;BME280;46181;51.498;5.392;2023-12-20T05:47:58;101500.9;;;11.3;66.4209
59987;BME280;46181;51.498;5.392;2023-12-20T05:52:28;101510.6;;;11.16;66.23145
59987;BME280;46181;51.498;5.392;2023-12-20T05:56:58;101512;;;10.97;66.01172
59987;BME280;46181;51.498;5.392;2023-12-20T06:01:28;101517.1;;;10.8;65.96484
59987;BME280;46181;51.498;5.392;2023-12-20T06:05:58;101528.1;;;10.65;65.99805
59987;BME280;46181;51.498;5.392;2023-12-20T06:10:28;101532.4;;;10.57;66.27637
59987;BME280;46181;51.498;5.392;2023-12-20T06:14:58;101532.7;;;10.55;66.37598
59987;BME280;46181;51.498;5.392;2023-12-20T06:19:28;101525.8;;;10.51;66.3125
59987;BME280;46181;51.498;5.392;2023-12-20T06:23:58;101523.5;;;10.42;66.2207
59987;BME280;46181;51.498;5.392;2023-12-20T06:28:28;101523.1;;;10.31;66.15918
59987;BME280;46181;51.498;5.392;2023-12-20T06:32:58;101526.8;;;10.23;66.14844
59987;BME280;46181;51.498;5.392;2023-12-20T06:37:28;101521.4;;;10.15;66.13477
59987;BME280;46181;51.498;5.392;2023-12-20T06:41:58;101520.5;;;10.15;66.4375
59987;BME280;46181;51.498;5.392;2023-12-20T06:46:28;101517.5;;;10.21;66.62695
59987;BME280;46181;51.498;5.392;2023-12-20T06:50:59;101521.5;;;10.32;66.81152
59987;BME280;46181;51.498;5.392;2023-12-20T06:55:28;101518.6;;;10.43;66.77246
59987;BME280;46181;51.498;5.392;2023-12-20T06:59:58;101512.6;;;10.53;66.78711
59987;BME280;46181;51.498;5.392;2023-12-20T07:04:28;101517;;;10.57;66.62598
59987;BME280;46181;51.498;5.392;2023-12-20T07:08:58;101514.2;;;10.61;66.58594
59987;BME280;46181;51.498;5.392;2023-12-20T07:13:28;101518.4;;;10.63;66.38672
59987;BME280;46181;51.498;5.392;2023-12-20T07:17:58;101513.5;;;10.6;66.37109
59987;BME280;46181;51.498;5.392;2023-12-20T07:22:28;101517.6;;;10.64;66.54688
59987;BME280;46181;51.498;5.392;2023-12-20T07:26:58;101515.1;;;10.71;66.53418
59987;BME280;46181;51.498;5.392;2023-12-20T07:31:28;101520.2;;;10.78;66.52246
59987;BME280;46181;51.498;5.392;2023-12-20T07:35:58;101518.6;;;10.85;66.31836
59987;BME280;46181;51.498;5.392;2023-12-20T07:40:28;101522.3;;;10.88;66.29004
59987;BME280;46181;51.498;5.392;2023-12-20T07:44:58;101518.5;;;10.91;66.22754
59987;BME280;46181;51.498;5.392;2023-12-20T07:49:28;101507.5;;;10.96;66.16797
59987;BME280;46181;51.498;5.392;2023-12-20T07:53:58;101504.3;;;11;66.20703
59987;BME280;46181;51.498;5.392;2023-12-20T07:58:28;101513.5;;;11.03;66.15723
59987;BME280;46181;51.498;5.392;2023-12-20T08:02:58;101516.5;;;11.08;66.20801
59987;BME280;46181;51.498;5.392;2023-12-20T08:07:28;101521.1;;;11.12;66.03516
59987;BME280;46181;51.498;5.392;2023-12-20T08:11:58;101527.3;;;11.15;66.10645
59987;BME280;46181;51.498;5.392;2023-12-20T08:16:28;101525.5;;;11.19;66.0459
59987;BME280;46181;51.498;5.392;2023-12-20T08:20:58;101527.5;;;11.23;66.02832
59987;BME280;46181;51.498;5.392;2023-12-20T08:25:28;101530.5;;;11.28;65.96777
59987;BME280;46181;51.498;5.392;2023-12-20T08:29:58;101536.9;;;11.31;65.92969
59987;BME280;46181;51.498;5.392;2023-12-20T08:34:28;101535.3;;;11.38;65.83691
59987;BME280;46181;51.498;5.392;2023-12-20T08:38:58;101538.6;;;11.42;65.79883
59987;BME280;46181;51.498;5.392;2023-12-20T08:43:28;101538.2;;;11.48;65.89648
59987;BME280;46181;51.498;5.392;2023-12-20T08:47:58;101524.4;;;11.55;65.67285
59987;BME280;46181;51.498;5.392;2023-12-20T08:52:28;101511.8;;;11.57;65.58496
59987;BME280;46181;51.498;5.392;2023-12-20T08:56:58;101500.6;;;11.63;65.57031
59987;BME280;46181;51.498;5.392;2023-12-20T09:01:28;101500.1;;;11.7;65.37891
59987;BME280;46181;51.498;5.392;2023-12-20T09:05:58;101494.9;;;11.7;65.49219
59987;BME280;46181;51.498;5.392;2023-12-20T09:10:29;101505.1;;;11.78;65.52637
59987;BME280;46181;51.498;5.392;2023-12-20T09:14:59;101520.6;;;11.82;65.41992
59987;BME280;46181;51.498;5.392;2023-12-20T09:19:28;101515.7;;;11.87;65.41406
59987;BME280;46181;51.498;5.392;2023-12-20T09:23:58;101518.6;;;11.87;65.29004
59987;BME280;46181;51.498;5.392;2023-12-20T09:28:28;101512.6;;;11.88;65.32715
59987;BME280;46181;51.498;5.392;2023-12-20T09:32:59;101517.7;;;11.9;65.33105
59987;BME280;46181;51.498;5.392;2023-12-20T09:37:29;101512.3;;;11.93;65.3125
59987;BME280;46181;51.498;5.392;2023-12-20T09:42:06;101506.8;;;11.9;65.36426
59987;BME280;46181;51.498;5.392;2023-12-20T09:46:33;101507.2;;;11.96;65.31641
59987;BME280;46181;51.498;5.392;2023-12-20T09:50:59;101507.1;;;12.03;65.10156
59987;BME280;46181;51.498;5.392;2023-12-20T09:55:29;101496.7;;;12.06;64.9707
59987;BME280;46181;51.498;5.392;2023-12-20T09:59:59;101499.3;;;12.02;64.7959
59987;BME280;46181;51.498;5.392;2023-12-20T10:04:28;101504.3;;;12.05;64.92383
59987;BME280;46181;51.498;5.392;2023-12-20T10:08:58;101520;;;12.07;64.99414
59987;BME280;46181;51.498;5.392;2023-12-20T10:13:28;101506.2;;;12.12;64.97852
59987;BME280;46181;51.498;5.392;2023-12-20T10:17:58;101499.5;;;12.18;64.96484
59987;BME280;46181;51.498;5.392;2023-12-20T10:22:28;101492.8;;;12.24;64.98535
59987;BME280;46181;51.498;5.392;2023-12-20T10:27:09;101493.5;;;12.21;65.02539
59987;BME280;46181;51.498;5.392;2023-12-20T10:31:38;101497.8;;;12.25;64.95313
59987;BME280;46181;51.498;5.392;2023-12-20T10:35:59;101496.3;;;12.34;64.71973
59987;BME280;46181;51.498;5.392;2023-12-20T10:40:29;101489.1;;;12.38;64.69043
59987;BME280;46181;51.498;5.392;2023-12-20T10:44:59;101490.5;;;12.42;64.66309
59987;BME280;46181;51.498;5.392;2023-12-20T10:49:29;101486.5;;;12.46;64.58887
59987;BME280;46181;51.498;5.392;2023-12-20T10:53:59;101479.7;;;12.49;64.58203
59987;BME280;46181;51.498;5.392;2023-12-20T10:58:29;101480.3;;;12.54;64.5459
59987;BME280;46181;51.498;5.392;2023-12-20T11:03:00;101462.7;;;12.57;64.49316
59987;BME280;46181;51.498;5.392;2023-12-20T11:07:33;101448.8;;;12.58;64.4834
59987;BME280;46181;51.498;5.392;2023-12-20T11:12:08;101454.5;;;12.56;64.60547
59987;BME280;46181;51.498;5.392;2023-12-20T11:16:29;101453;;;12.66;64.47168
59987;BME280;46181;51.498;5.392;2023-12-20T11:20:59;101454.6;;;12.65;64.31348
59987;BME280;46181;51.498;5.392;2023-12-20T11:25:29;101459.3;;;12.61;64.3877
59987;BME280;46181;51.498;5.392;2023-12-20T11:30:02;101464.8;;;12.57;64.36914
59987;BME280;46181;51.498;5.392;2023-12-20T11:34:31;101446.9;;;12.51;64.40527
59987;BME280;46181;51.498;5.392;2023-12-20T11:39:08;101433.6;;;12.42;64.70898
59987;BME280;46181;51.498;5.392;2023-12-20T11:43:42;101435.4;;;12.38;64.71289
59987;BME280;46181;51.498;5.392;2023-12-20T11:48:00;101431.5;;;12.44;64.62207
59987;BME280;46181;51.498;5.392;2023-12-20T11:52:29;101430;;;12.46;64.75879
59987;BME280;46181;51.498;5.392;2023-12-20T11:56:59;101424.1;;;12.52;64.80176
59987;BME280;46181;51.498;5.392;2023-12-20T12:01:29;101426.1;;;12.5;64.70898
59987;BME280;46181;51.498;5.392;2023-12-20T12:05:59;101413;;;12.48;64.81738
59987;BME280;46181;51.498;5.392;2023-12-20T12:10:29;101404.2;;;12.46;64.80371
59987;BME280;46181;51.498;5.392;2023-12-20T12:14:59;101402.2;;;12.44;64.90234
59987;BME280;46181;51.498;5.392;2023-12-20T12:19:35;101404.4;;;12.42;65.19336
59987;BME280;46181;51.498;5.392;2023-12-20T12:24:07;101399.6;;;12.48;65.19141
59987;BME280;46181;51.498;5.392;2023-12-20T12:28:29;101401.4;;;12.54;65.22266
59987;BME280;46181;51.498;5.392;2023-12-20T12:32:59;101399.7;;;12.62;65.2334
59987;BME280;46181;51.498;5.392;2023-12-20T12:37:29;101388.7;;;12.74;65.18457
59987;BME280;46181;51.498;5.392;2023-12-20T12:41:59;101390.7;;;12.82;65.0166
59987;BME280;46181;51.498;5.392;2023-12-20T12:46:29;101376.4;;;12.87;64.8418
59987;BME280;46181;51.498;5.392;2023-12-20T12:50:59;101375.9;;;12.88;64.86719
59987;BME280;46181;51.498;5.392;2023-12-20T12:55:29;101371.1;;;12.91;64.83789
59987;BME280;46181;51.498;5.392;2023-12-20T12:59:59;101359.9;;;12.93;64.85156
59987;BME280;46181;51.498;5.392;2023-12-20T13:04:29;101365.4;;;12.94;64.78516
59987;BME280;46181;51.498;5.392;2023-12-20T13:08:59;101359.4;;;12.94;64.78516
59987;BME280;46181;51.498;5.392;2023-12-20T13:13:29;101348.7;;;12.93;64.55762
59987;BME280;46181;51.498;5.392;2023-12-20T13:17:59;101342.7;;;12.86;64.62598
59987;BME280;46181;51.498;5.392;2023-12-20T13:22:29;101335.7;;;12.82;64.77734
59987;BME280;46181;51.498;5.392;2023-12-20T13:26:59;101331.6;;;12.82;64.91309
59987;BME280;46181;51.498;5.392;2023-12-20T13:31:29;101311.1;;;12.81;64.93457
59987;BME280;46181;51.498;5.392;2023-12-20T13:35:59;101299.4;;;12.8;64.8877
59987;BME280;46181;51.498;5.392;2023-12-20T13:40:29;101294.8;;;12.79;64.90918
59987;BME280;46181;51.498;5.392;2023-12-20T13:44:59;101279.6;;;12.83;65.01758
59987;BME280;46181;51.498;5.392;2023-12-20T13:49:29;101296.8;;;12.86;64.99902
59987;BME280;46181;51.498;5.392;2023-12-20T13:53:59;101296.7;;;12.91;64.96191
59987;BME280;46181;51.498;5.392;2023-12-20T13:58:29;101287.6;;;12.9;64.86914
59987;BME280;46181;51.498;5.392;2023-12-20T14:02:59;101279.9;;;12.88;64.90039
59987;BME280;46181;51.498;5.392;2023-12-20T14:07:29;101276.3;;;12.87;64.94336
59987;BME280;46181;51.498;5.392;2023-12-20T14:11:59;101271.9;;;12.87;64.91113
59987;BME280;46181;51.498;5.392;2023-12-20T14:16:29;101272;;;12.87;64.89844
59987;BME280;46181;51.498;5.392;2023-12-20T14:20:59;101272.3;;;12.85;64.91895
59987;BME280;46181;51.498;5.392;2023-12-20T14:25:29;101276.2;;;12.84;65.01855
59987;BME280;46181;51.498;5.392;2023-12-20T14:29:59;101277.6;;;12.86;65.00977
59987;BME280;46181;51.498;5.392;2023-12-20T14:34:29;101289.5;;;12.89;65.02637
59987;BME280;46181;51.498;5.392;2023-12-20T14:38:59;101278.9;;;12.91;65.01855
59987;BME280;46181;51.498;5.392;2023-12-20T14:43:29;101267.8;;;12.92;65.01953
59987;BME280;46181;51.498;5.392;2023-12-20T14:47:59;101265.5;;;12.92;64.98438
59987;BME280;46181;51.498;5.392;2023-12-20T14:52:30;101284.7;;;12.93;65.03223
59987;BME280;46181;51.498;5.392;2023-12-20T14:56:59;101290.2;;;12.96;64.96875
59987;BME280;46181;51.498;5.392;2023-12-20T15:01:29;101290.2;;;12.98;65.00488
59987;BME280;46181;51.498;5.392;2023-12-20T15:05:59;101292.1;;;12.98;64.95996
59987;BME280;46181;51.498;5.392;2023-12-20T15:10:29;101279.2;;;12.98;64.95996
59987;BME280;46181;51.498;5.392;2023-12-20T15:14:59;101280.4;;;13;64.93945
59987;BME280;46181;51.498;5.392;2023-12-20T15:19:29;101279.9;;;12.98;64.91504
59987;BME280;46181;51.498;5.392;2023-12-20T15:23:59;101262.9;;;12.97;64.87891
59987;BME280;46181;51.498;5.392;2023-12-20T15:28:29;101267.1;;;12.94;64.875
59987;BME280;46181;51.498;5.392;2023-12-20T15:32:59;101267.1;;;12.94;64.88672
59987;BME280;46181;51.498;5.392;2023-12-20T15:37:29;101269.6;;;12.93;64.93164
59987;BME280;46181;51.498;5.392;2023-12-20T15:41:59;101269.2;;;12.92;64.95215
59987;BME280;46181;51.498;5.392;2023-12-20T15:46:29;101268;;;12.9;64.9834
59987;BME280;46181;51.498;5.392;2023-12-20T15:51:03;101273.8;;;12.91;64.96191
59987;BME280;46181;51.498;5.392;2023-12-20T15:55:29;101279.4;;;12.9;64.9248
59987;BME280;46181;51.498;5.392;2023-12-20T15:59:59;101269;;;12.88;64.96777
59987;BME280;46181;51.498;5.392;2023-12-20T16:04:29;101256.9;;;12.89;65.01465
59987;BME280;46181;51.498;5.392;2023-12-20T16:08:59;101258.9;;;12.9;65.08496
59987;BME280;46181;51.498;5.392;2023-12-20T16:13:29;101258.5;;;12.9;65.02637
59987;BME280;46181;51.498;5.392;2023-12-20T16:17:59;101243.2;;;12.9;65.03809
59987;BME280;46181;51.498;5.392;2023-12-20T16:22:29;101226.5;;;12.88;65.00195
59987;BME280;46181;51.498;5.392;2023-12-20T16:26:59;101214.4;;;12.86;65.0332
59987;BME280;46181;51.498;5.392;2023-12-20T16:31:29;101205.3;;;12.81;65.02441
59987;BME280;46181;51.498;5.392;2023-12-20T16:35:59;101202.8;;;12.79;65.07813
59987;BME280;46181;51.498;5.392;2023-12-20T16:40:29;101206.8;;;12.76;65.17578
59987;BME280;46181;51.498;5.392;2023-12-20T16:44:59;101209.9;;;12.78;65.38184
59987;BME280;46181;51.498;5.392;2023-12-20T16:49:29;101193.1;;;12.8;65.26172
59987;BME280;46181;51.498;5.392;2023-12-20T16:53:59;101182.7;;;12.81;65.26172
59987;BME280;46181;51.498;5.392;2023-12-20T16:58:29;101172.4;;;12.85;65.28027
59987;BME280;46181;51.498;5.392;2023-12-20T17:02:59;101170.2;;;12.88;65.16016
59987;BME280;46181;51.498;5.392;2023-12-20T17:07:29;101157.7;;;12.86;65.17969
59987;BME280;46181;51.498;5.392;2023-12-20T17:11:59;101148.2;;;12.87;65.16992
59987;BME280;46181;51.498;5.392;2023-12-20T17:16:29;101147.9;;;12.85;65.08789
59987;BME280;46181;51.498;5.392;2023-12-20T17:20:59;101140;;;12.82;65.16309
59987;BME280;46181;51.498;5.392;2023-12-20T17:25:29;101138.2;;;12.86;65.29199
59987;BME280;46181;51.498;5.392;2023-12-20T17:29:59;101129.9;;;12.87;65.25977
59987;BME280;46181;51.498;5.392;2023-12-20T17:34:29;101119.6;;;12.86;65.25879
59987;BME280;46181;51.498;5.392;2023-12-20T17:38:59;101106.7;;;12.85;65.26855
59987;BME280;46181;51.498;5.392;2023-12-20T17:43:29;101110.5;;;12.87;65.4082
59987;BME280;46181;51.498;5.392;2023-12-20T17:47:59;101100.8;;;12.88;65.31738
59987;BME280;46181;51.498;5.392;2023-12-20T17:52:29;101087.7;;;12.89;65.21875
59987;BME280;46181;51.498;5.392;2023-12-20T17:56:59;101085.9;;;12.87;65.38379
59987;BME280;46181;51.498;5.392;2023-12-20T18:01:29;101093.4;;;12.92;65.50391
59987;BME280;46181;51.498;5.392;2023-12-20T18:05:59;101084.6;;;12.94;65.48535
59987;BME280;46181;51.498;5.392;2023-12-20T18:10:29;101066;;;12.97;65.47656
59987;BME280;46181;51.498;5.392;2023-12-20T18:14:59;101062.4;;;12.99;65.49219
59987;BME280;46181;51.498;5.392;2023-12-20T18:19:29;101054.3;;;13.04;65.40918
59987;BME280;46181;51.498;5.392;2023-12-20T18:23:59;101057.7;;;13.05;65.38867
59987;BME280;46181;51.498;5.392;2023-12-20T18:28:29;101047.2;;;13.08;65.38086
59987;BME280;46181;51.498;5.392;2023-12-20T18:32:59;101040.4;;;13.1;65.32715
59987;BME280;46181;51.498;5.392;2023-12-20T18:37:29;101055.5;;;13.11;65.38672
59987;BME280;46181;51.498;5.392;2023-12-20T18:41:59;101052.4;;;13.15;65.33496
59987;BME280;46181;51.498;5.392;2023-12-20T18:46:29;101054.4;;;13.16;65.37207
59987;BME280;46181;51.498;5.392;2023-12-20T18:50:59;101044.9;;;13.21;65.35645
59987;BME280;46181;51.498;5.392;2023-12-20T18:55:29;101044.8;;;13.24;65.28223
59987;BME280;46181;51.498;5.392;2023-12-20T18:59:59;101035.6;;;13.26;65.2627
59987;BME280;46181;51.498;5.392;2023-12-20T19:04:29;101024.7;;;13.29;65.23242
59987;BME280;46181;51.498;5.392;2023-12-20T19:08:59;101020.9;;;13.31;65.17871
59987;BME280;46181;51.498;5.392;2023-12-20T19:13:29;101021.5;;;13.32;65.02148
59987;BME280;46181;51.498;5.392;2023-12-20T19:17:59;101012.1;;;13.3;64.97363
59987;BME280;46181;51.498;5.392;2023-12-20T19:22:29;101009.8;;;13.27;64.98145
59987;BME280;46181;51.498;5.392;2023-12-20T19:26:59;100986.7;;;13.24;65.06738
59987;BME280;46181;51.498;5.392;2023-12-20T19:31:29;100992.4;;;13.27;65.18359
59987;BME280;46181;51.498;5.392;2023-12-20T19:35:59;100972.9;;;13.31;65.20117
59987;BME280;46181;51.498;5.392;2023-12-20T19:40:29;100958.7;;;13.34;65.16016
59987;BME280;46181;51.498;5.392;2023-12-20T19:44:59;100957.6;;;13.36;65.15234
59987;BME280;46181;51.498;5.392;2023-12-20T19:49:30;100959.2;;;13.4;65.11328
59987;BME280;46181;51.498;5.392;2023-12-20T19:54:00;100957.3;;;13.42;65.10449
59987;BME280;46181;51.498;5.392;2023-12-20T19:58:29;100945.7;;;13.43;65.0957
59987;BME280;46181;51.498;5.392;2023-12-20T20:02:59;100949.1;;;13.45;65.00781
59987;BME280;46181;51.498;5.392;2023-12-20T20:07:29;100939.3;;;13.49;65.02344
59987;BME280;46181;51.498;5.392;2023-12-20T20:11:59;100918.6;;;13.51;64.95898
59987;BME280;46181;51.498;5.392;2023-12-20T20:16:29;100930.1;;;13.53;64.93945
59987;BME280;46181;51.498;5.392;2023-12-20T20:20:59;100911.3;;;13.54;64.86133
59987;BME280;46181;51.498;5.392;2023-12-20T20:25:29;100917.7;;;13.57;64.82129
59987;BME280;46181;51.498;5.392;2023-12-20T20:29:59;100918.2;;;13.58;64.82324
59987;BME280;46181;51.498;5.392;2023-12-20T20:34:29;100907.6;;;13.58;64.78906
59987;BME280;46181;51.498;5.392;2023-12-20T20:38:59;100913.1;;;13.6;64.82715
59987;BME280;46181;51.498;5.392;2023-12-20T20:43:29;100914.6;;;13.63;64.75195
59987;BME280;46181;51.498;5.392;2023-12-20T20:47:59;100920.8;;;13.65;64.6748
59987;BME280;46181;51.498;5.392;2023-12-20T20:52:29;100920.6;;;13.64;64.64941
59987;BME280;46181;51.498;5.392;2023-12-20T20:56:59;100901.5;;;13.61;64.73633
59987;BME280;46181;51.498;5.392;2023-12-20T21:01:29;100896.2;;;13.59;64.7334
59987;BME280;46181;51.498;5.392;2023-12-20T21:05:59;100901.3;;;13.58;64.7666
59987;BME280;46181;51.498;5.392;2023-12-20T21:10:29;100904;;;13.59;64.76758
59987;BME280;46181;51.498;5.392;2023-12-20T21:14:59;100889.5;;;13.54;64.71582
59987;BME280;46181;51.498;5.392;2023-12-20T21:19:29;100887.4;;;13.48;64.85352
59987;BME280;46181;51.498;5.392;2023-12-20T21:23:59;100873.9;;;13.46;64.97363
59987;BME280;46181;51.498;5.392;2023-12-20T21:28:29;100869;;;13.46;65.05469
59987;BME280;46181;51.498;5.392;2023-12-20T21:32:59;100851.9;;;13.47;65.08984
59987;BME280;46181;51.498;5.392;2023-12-20T21:37:29;100850.1;;;13.44;65.17578
59987;BME280;46181;51.498;5.392;2023-12-20T21:41:59;100854;;;13.44;65.2666
59987;BME280;46181;51.498;5.392;2023-12-20T21:46:29;100841.6;;;13.44;65.40039
59987;BME280;46181;51.498;5.392;2023-12-20T21:50:59;100844.6;;;13.45;65.47168
59987;BME280;46181;51.498;5.392;2023-12-20T21:55:29;100854.7;;;13.47;65.53027
59987;BME280;46181;51.498;5.392;2023-12-20T21:59:59;100853.5;;;13.47;65.60938
59987;BME280;46181;51.498;5.392;2023-12-20T22:04:29;100849.3;;;13.49;65.65625
59987;BME280;46181;51.498;5.392;2023-12-20T22:08:59;100857.2;;;13.5;65.79492
59987;BME280;46181;51.498;5.392;2023-12-20T22:13:29;100848.8;;;13.52;65.82031
59987;BME280;46181;51.498;5.392;2023-12-20T22:17:59;100843.5;;;13.51;65.88672
59987;BME280;46181;51.498;5.392;2023-12-20T22:22:29;100856.6;;;13.51;65.93066
59987;BME280;46181;51.498;5.392;2023-12-20T22:26:59;100839.1;;;13.52;66.02539
59987;BME280;46181;51.498;5.392;2023-12-20T22:31:29;100849.5;;;13.53;66.11523
59987;BME280;46181;51.498;5.392;2023-12-20T22:35:59;100840.7;;;13.57;66.2002
59987;BME280;46181;51.498;5.392;2023-12-20T22:40:29;100826.7;;;13.59;66.23828
59987;BME280;46181;51.498;5.392;2023-12-20T22:44:59;100827.2;;;13.62;66.24219
59987;BME280;46181;51.498;5.392;2023-12-20T22:49:29;100805.2;;;13.62;66.32227
59987;BME280;46181;51.498;5.392;2023-12-20T22:53:59;100793;;;13.64;66.31348
59987;BME280;46181;51.498;5.392;2023-12-20T22:58:29;100788.9;;;13.64;66.39355
59987;BME280;46181;51.498;5.392;2023-12-20T23:02:59;100787.3;;;13.68;66.44336